Time;durP1;ratioP1;P1;durP2;ratioP2;P2;SDS_P1;SDS_P2;PMS_P1;PMS_P2;Temp;Humidity;BMP_temperature;BMP_pressure;BME280_temperature;BME280_humidity;BME280_pressure;Samples;Min_cycle;Max_cycle;Signal;HPM_P1;HPM_P2
2021/01/24 00:01:15;;;;;;;0.45;0.45;;;1.50;99.90;;;;;;4398863;32;20070;-74
2021/01/24 00:03:40;;;;;;;1.30;1.08;;;1.50;99.90;;;;;;4398641;32;20086;-74
2021/01/24 00:06:06;;;;;;;0.37;0.37;;;1.50;99.90;;;;;;4398582;32;20117;-74
2021/01/24 00:08:31;;;;;;;0.30;0.30;;;1.50;99.90;;;;;;4399664;32;20098;-74
2021/01/24 00:10:57;;;;;;;1.00;1.00;;;1.50;99.90;;;;;;4399017;32;20066;-74
2021/01/24 00:13:22;;;;;;;4.28;2.15;;;1.50;99.90;;;;;;4414647;32;20073;-74
2021/01/24 00:15:48;;;;;;;0.45;0.45;;;1.50;99.90;;;;;;4413818;32;20065;-74
2021/01/24 00:18:13;;;;;;;0.70;0.70;;;1.50;99.90;;;;;;4413153;32;20089;-74
2021/01/24 00:20:39;;;;;;;0.30;0.30;;;1.50;99.90;;;;;;4413302;32;20467;-74
2021/01/24 00:23:04;;;;;;;0.45;0.45;;;1.50;99.90;;;;;;4413568;32;20454;-74
2021/01/24 00:25:30;;;;;;;0.30;0.30;;;1.60;99.90;;;;;;4413607;32;20074;-74
2021/01/24 00:27:55;;;;;;;0.55;0.55;;;1.60;99.90;;;;;;4413951;32;20074;-74
2021/01/24 00:30:21;;;;;;;0.40;0.40;;;1.70;99.90;;;;;;4406508;32;20078;-74
2021/01/24 00:32:46;;;;;;;0.75;0.75;;;1.60;99.90;;;;;;4399147;32;20433;-74
2021/01/24 00:35:13;;;;;;;2.05;1.10;;;1.60;99.90;;;;;;4398369;32;20073;-74
2021/01/24 00:37:39;;;;;;;0.60;0.60;;;1.60;99.90;;;;;;4397915;32;20130;-74
2021/01/24 00:40:06;;;;;;;0.43;0.43;;;1.60;99.90;;;;;;4398497;32;20536;-74
2021/01/24 00:42:31;;;;;;;3.60;1.05;;;1.70;99.90;;;;;;4399030;32;20078;-74
2021/01/24 00:44:57;;;;;;;0.88;0.85;;;1.70;99.90;;;;;;4398310;32;20066;-74
2021/01/24 00:47:22;;;;;;;0.52;0.52;;;1.70;99.90;;;;;;4397988;32;20086;-74
2021/01/24 00:49:48;;;;;;;1.52;0.90;;;1.70;99.90;;;;;;4398011;32;20062;-73
2021/01/24 00:52:13;;;;;;;5.05;1.05;;;1.80;99.90;;;;;;4397764;32;20452;-73
2021/01/24 00:54:39;;;;;;;1.65;1.10;;;1.90;99.90;;;;;;4397673;32;20121;-74
2021/01/24 00:57:04;;;;;;;4.12;0.93;;;2.00;99.90;;;;;;4398180;32;20090;-75
2021/01/24 00:59:30;;;;;;;0.77;0.75;;;2.00;99.90;;;;;;4398459;32;20122;-74
2021/01/24 01:01:56;;;;;;;0.60;0.60;;;2.00;99.90;;;;;;4398814;32;20425;-74
2021/01/24 01:04:21;;;;;;;0.82;0.80;;;1.90;99.90;;;;;;4398083;32;20397;-74
2021/01/24 01:06:47;;;;;;;0.80;0.80;;;1.90;99.90;;;;;;4393815;32;20414;-74
2021/01/24 01:09:12;;;;;;;0.52;0.52;;;1.80;99.90;;;;;;4384494;32;20062;-74
2021/01/24 01:11:38;;;;;;;0.62;0.62;;;1.80;99.90;;;;;;4394505;32;20089;-74
2021/01/24 01:14:03;;;;;;;4.03;1.37;;;1.60;99.90;;;;;;4415878;32;20471;-74
2021/01/24 01:16:29;;;;;;;1.27;1.17;;;1.60;99.90;;;;;;4416731;32;20073;-74
2021/01/24 01:18:54;;;;;;;0.57;0.57;;;1.70;99.90;;;;;;4415079;32;20078;-74
2021/01/24 01:21:20;;;;;;;0.75;0.68;;;1.70;99.90;;;;;;4415680;32;20424;-74
2021/01/24 01:23:45;;;;;;;7.55;0.85;;;1.80;99.90;;;;;;4415515;32;20121;-74
2021/01/24 01:26:13;;;;;;;1.08;1.00;;;1.80;99.90;;;;;;4415935;32;20074;-74
2021/01/24 01:28:38;;;;;;;0.65;0.65;;;1.80;99.90;;;;;;4415958;32;20074;-74
2021/01/24 01:31:04;;;;;;;1.73;1.05;;;1.80;99.90;;;;;;4415686;32;20424;-74
2021/01/24 01:33:29;;;;;;;0.50;0.50;;;1.80;99.90;;;;;;4415597;32;20077;-74
2021/01/24 01:35:55;;;;;;;0.50;0.50;;;1.80;99.90;;;;;;4415331;32;20078;-74
2021/01/24 01:38:20;;;;;;;1.10;1.00;;;1.80;99.90;;;;;;4414962;32;20503;-74
2021/01/24 01:40:46;;;;;;;0.60;0.60;;;1.70;99.90;;;;;;4415094;32;20085;-74
2021/01/24 01:43:11;;;;;;;0.77;0.77;;;1.70;99.90;;;;;;4415374;32;20078;-74
2021/01/24 01:45:37;;;;;;;2.75;1.55;;;1.80;99.90;;;;;;4415315;32;20069;-74
2021/01/24 01:48:03;;;;;;;2.28;1.25;;;1.80;99.90;;;;;;4414971;32;20465;-74
2021/01/24 01:50:28;;;;;;;3.83;1.80;;;1.70;99.90;;;;;;4415003;32;20545;-74
2021/01/24 01:52:58;;;;;;;0.73;0.73;;;1.70;99.90;;;;;;4415144;32;20058;-74
2021/01/24 01:55:23;;;;;;;0.43;0.43;;;1.70;99.90;;;;;;4415907;32;20098;-74
2021/01/24 01:57:49;;;;;;;0.80;0.80;;;1.70;99.90;;;;;;4415038;32;20070;-74
2021/01/24 02:00:15;;;;;;;0.50;0.50;;;1.80;99.90;;;;;;4415914;32;20066;-74
2021/01/24 02:03:20;;;;;;;0.68;0.68;;;1.80;99.90;;;;;;4415437;32;20086;-74
2021/01/24 02:06:14;;;;;;;0.57;0.57;;;1.90;99.90;;;;;;4405479;32;20519;-74
2021/01/24 02:08:49;;;;;;;0.75;0.75;;;1.90;99.90;;;;;;4385369;32;20122;-74
2021/01/24 02:11:24;;;;;;;1.40;1.30;;;1.90;99.90;;;;;;4388807;32;20078;-74
2021/01/24 02:14:14;;;;;;;0.60;0.60;;;1.70;99.90;;;;;;4415000;32;20572;-74
2021/01/24 02:16:40;;;;;;;0.50;0.50;;;1.70;99.90;;;;;;4415162;32;20542;-74
2021/01/24 02:19:09;;;;;;;1.17;0.95;;;1.60;99.90;;;;;;4414407;32;20124;-74
2021/01/24 02:21:39;;;;;;;0.47;0.47;;;1.60;99.90;;;;;;4414324;32;20090;-74
2021/01/24 02:24:08;;;;;;;1.10;0.68;;;1.60;99.90;;;;;;4415218;32;20066;-74
2021/01/24 02:26:43;;;;;;;0.70;0.70;;;1.60;99.90;;;;;;4414850;32;20073;-74
2021/01/24 02:29:18;;;;;;;0.70;0.70;;;1.60;99.90;;;;;;4415355;32;20417;-74
2021/01/24 02:31:46;;;;;;;0.70;0.70;;;1.60;99.90;;;;;;4416007;32;20500;-74
2021/01/24 02:34:15;;;;;;;1.30;1.20;;;1.60;99.90;;;;;;4414365;32;20471;-74
2021/01/24 02:36:43;;;;;;;1.12;1.02;;;1.70;99.90;;;;;;4414208;32;20062;-73
2021/01/24 02:39:09;;;;;;;0.40;0.40;;;1.70;99.90;;;;;;4414719;32;20114;-74
2021/01/24 02:41:35;;;;;;;3.83;0.88;;;1.90;99.90;;;;;;4415228;32;20070;-74
2021/01/24 02:44:02;;;;;;;0.60;0.60;;;1.90;99.90;;;;;;4414973;32;20121;-74
2021/01/24 02:46:30;;;;;;;0.50;0.50;;;2.00;99.90;;;;;;4414271;32;20143;-74
2021/01/24 02:48:55;;;;;;;0.70;0.70;;;2.00;99.90;;;;;;4414113;32;20074;-74
2021/01/24 02:51:23;;;;;;;0.82;0.82;;;2.00;99.90;;;;;;4415672;32;20081;-74
2021/01/24 02:53:49;;;;;;;0.62;0.50;;;2.00;99.90;;;;;;4414492;32;20429;-74
2021/01/24 02:56:17;;;;;;;0.90;0.90;;;1.90;99.90;;;;;;4414166;32;20417;-74
2021/01/24 02:58:43;;;;;;;1.00;0.88;;;1.90;99.90;;;;;;4414890;32;20086;-74
2021/01/24 03:01:09;;;;;;;0.82;0.82;;;1.90;99.90;;;;;;4414399;32;20074;-74
2021/01/24 03:03:34;;;;;;;1.67;1.02;;;2.00;99.90;;;;;;4414937;32;20062;-74
2021/01/24 03:06:00;;;;;;;0.40;0.40;;;2.00;99.90;;;;;;4413650;32;20069;-74
2021/01/24 03:08:25;;;;;;;2.30;0.95;;;1.90;99.90;;;;;;4399994;32;20074;-74
2021/01/24 03:10:51;;;;;;;0.77;0.77;;;1.90;99.90;;;;;;4399249;32;20070;-74
2021/01/24 03:13:39;;;;;;;0.45;0.45;;;2.00;99.90;;;;;;4414051;32;20418;-74
2021/01/24 03:16:07;;;;;;;0.80;0.80;;;2.00;99.90;;;;;;4414355;32;20078;-74
2021/01/24 03:18:36;;;;;;;0.40;0.40;;;1.90;99.90;;;;;;4415063;32;20058;-74
2021/01/24 03:21:03;;;;;;;0.93;0.90;;;2.00;99.90;;;;;;4414667;32;20121;-74
2021/01/24 03:23:29;;;;;;;1.23;1.12;;;2.00;99.90;;;;;;4414422;32;20062;-74
2021/01/24 03:25:56;;;;;;;0.68;0.68;;;2.00;99.90;;;;;;4414171;32;20085;-74
2021/01/24 03:28:23;;;;;;;1.70;1.23;;;2.00;99.90;;;;;;4414058;32;20062;-74
2021/01/24 03:30:49;;;;;;;0.73;0.73;;;2.10;99.90;;;;;;4414091;32;20083;-74
2021/01/24 03:33:15;;;;;;;0.45;0.45;;;2.00;99.90;;;;;;4414163;32;20078;-74
2021/01/24 03:35:40;;;;;;;0.50;0.50;;;2.00;99.90;;;;;;4414554;32;20078;-74
2021/01/24 03:38:06;;;;;;;1.02;1.00;;;2.20;99.90;;;;;;4414611;32;20058;-74
2021/01/24 03:40:31;;;;;;;0.80;0.80;;;2.10;99.90;;;;;;4413575;32;20421;-74
2021/01/24 03:42:57;;;;;;;0.55;0.55;;;2.10;99.90;;;;;;4413841;32;20066;-74
2021/01/24 03:45:23;;;;;;;0.50;0.50;;;2.30;99.90;;;;;;4413871;32;20074;-74
2021/01/24 03:47:49;;;;;;;0.62;0.62;;;2.20;99.90;;;;;;4398440;32;20082;-74
2021/01/24 03:50:14;;;;;;;0.70;0.70;;;2.20;99.90;;;;;;4398376;32;20129;-74
2021/01/24 03:52:40;;;;;;;1.12;0.80;;;2.20;99.90;;;;;;4398153;32;20446;-74
2021/01/24 03:55:06;;;;;;;0.68;0.68;;;2.30;99.90;;;;;;4398429;32;20081;-74
2021/01/24 03:57:31;;;;;;;0.98;0.93;;;2.20;99.90;;;;;;4398578;32;20366;-74
2021/01/24 03:59:57;;;;;;;3.12;1.12;;;2.30;99.90;;;;;;4398739;32;20125;-74
2021/01/24 04:02:23;;;;;;;1.00;1.00;;;2.20;99.90;;;;;;4398637;32;20081;-74
2021/01/24 04:04:48;;;;;;;0.70;0.70;;;2.30;99.90;;;;;;4398458;32;20062;-74
2021/01/24 04:07:15;;;;;;;0.73;0.73;;;2.30;99.90;;;;;;4391738;32;20134;-74
2021/01/24 04:09:41;;;;;;;0.57;0.57;;;2.20;99.90;;;;;;4384722;32;20516;-74
2021/01/24 04:12:07;;;;;;;1.92;1.30;;;2.20;99.90;;;;;;4397470;32;20086;-74
2021/01/24 04:14:33;;;;;;;1.90;0.93;;;2.20;99.90;;;;;;4413602;32;20077;-74
2021/01/24 04:16:58;;;;;;;0.75;0.75;;;2.20;99.90;;;;;;4413601;32;20123;-74
2021/01/24 04:19:24;;;;;;;0.60;0.60;;;2.20;99.90;;;;;;4412910;32;20451;-74
2021/01/24 04:21:49;;;;;;;0.40;0.40;;;2.20;99.90;;;;;;4413440;32;20143;-74
2021/01/24 04:24:15;;;;;;;0.77;0.77;;;2.30;99.90;;;;;;4413454;32;20554;-74
2021/01/24 04:26:40;;;;;;;1.50;1.30;;;2.20;99.90;;;;;;4412998;32;20129;-74
2021/01/24 04:29:05;;;;;;;0.35;0.35;;;2.30;99.90;;;;;;4413811;32;20086;-74
2021/01/24 04:31:31;;;;;;;0.82;0.73;;;2.40;99.90;;;;;;4413507;32;20117;-74
2021/01/24 04:33:56;;;;;;;0.40;0.40;;;2.40;99.90;;;;;;4413256;32;20068;-74
2021/01/24 04:36:22;;;;;;;0.55;0.55;;;2.30;99.90;;;;;;4413719;32;20073;-73
2021/01/24 04:38:47;;;;;;;0.43;0.43;;;2.30;99.90;;;;;;4414087;32;20125;-74
2021/01/24 04:41:13;;;;;;;0.60;0.60;;;2.40;99.90;;;;;;4413503;32;20074;-73
2021/01/24 04:43:39;;;;;;;0.62;0.62;;;2.50;99.90;;;;;;4415307;32;20503;-74
2021/01/24 04:46:06;;;;;;;1.45;1.35;;;2.50;99.90;;;;;;4416084;32;20453;-74
2021/01/24 04:48:32;;;;;;;0.40;0.40;;;2.50;99.90;;;;;;4415408;32;20065;-74
2021/01/24 04:50:58;;;;;;;0.40;0.40;;;2.50;99.90;;;;;;4415790;32;20086;-74
2021/01/24 04:53:23;;;;;;;0.73;0.73;;;2.40;99.90;;;;;;4416806;32;20078;-74
2021/01/24 04:55:50;;;;;;;0.60;0.60;;;2.40;99.90;;;;;;4415789;32;20104;-74
2021/01/24 04:58:17;;;;;;;0.55;0.55;;;2.40;99.90;;;;;;4415761;32;20135;-74
2021/01/24 05:00:42;;;;;;;0.50;0.50;;;2.30;99.90;;;;;;4416882;32;20078;-74
2021/01/24 05:03:08;;;;;;;0.37;0.37;;;2.40;99.90;;;;;;4416722;32;20076;-74
2021/01/24 05:05:33;;;;;;;0.60;0.60;;;2.40;99.90;;;;;;4415953;32;20117;-74
2021/01/24 05:07:59;;;;;;;0.47;0.47;;;2.40;99.90;;;;;;4403572;32;20070;-74
2021/01/24 05:10:28;;;;;;;0.35;0.35;;;2.40;99.90;;;;;;4401448;32;20278;-74
2021/01/24 05:12:55;;;;;;;0.40;0.40;;;2.30;99.90;;;;;;4413788;32;20065;-74
2021/01/24 05:15:21;;;;;;;0.40;0.40;;;2.30;99.90;;;;;;4415907;32;20436;-74
2021/01/24 05:17:50;;;;;;;0.75;0.75;;;2.30;99.90;;;;;;4415664;32;20086;-74
2021/01/24 05:20:17;;;;;;;0.40;0.40;;;2.40;99.90;;;;;;4416637;32;20121;-74
2021/01/24 05:22:42;;;;;;;0.70;0.70;;;2.40;99.90;;;;;;4415351;32;20090;-74
2021/01/24 05:25:09;;;;;;;0.57;0.57;;;2.40;99.90;;;;;;4415773;32;20412;-74
2021/01/24 05:27:34;;;;;;;0.52;0.52;;;2.40;99.90;;;;;;4415830;32;20083;-74
2021/01/24 05:30:00;;;;;;;0.43;0.43;;;2.50;99.90;;;;;;4415391;32;20063;-74
2021/01/24 05:32:25;;;;;;;0.32;0.32;;;2.40;99.90;;;;;;4416482;32;20833;-74
2021/01/24 05:34:51;;;;;;;1.23;1.15;;;2.40;99.90;;;;;;4415278;32;20074;-74
2021/01/24 05:37:17;;;;;;;0.55;0.55;;;2.40;99.90;;;;;;4415101;32;20476;-74
2021/01/24 05:39:43;;;;;;;0.93;0.90;;;2.40;99.90;;;;;;4415290;32;20065;-74
2021/01/24 05:42:11;;;;;;;0.37;0.37;;;2.50;99.90;;;;;;4416734;32;20569;-74
2021/01/24 05:44:36;;;;;;;0.40;0.40;;;2.50;99.90;;;;;;4415999;32;20409;-74
2021/01/24 05:47:03;;;;;;;0.82;0.82;;;2.40;99.90;;;;;;4415064;32;20070;-74
2021/01/24 05:49:31;;;;;;;0.57;0.57;;;2.40;99.90;;;;;;4414986;32;20119;-74
2021/01/24 05:52:06;;;;;;;2.00;0.60;;;2.40;99.90;;;;;;4415367;32;20558;-74
2021/01/24 05:54:39;;;;;;;0.57;0.57;;;2.50;99.90;;;;;;4413679;32;20412;-74
2021/01/24 05:57:05;;;;;;;0.73;0.73;;;2.50;99.90;;;;;;4415735;32;20178;-74
2021/01/24 05:59:33;;;;;;;0.50;0.50;;;2.60;99.90;;;;;;4415521;32;20078;-74
2021/01/24 06:01:58;;;;;;;0.52;0.52;;;2.50;99.90;;;;;;4415133;32;20082;-74
2021/01/24 06:04:24;;;;;;;0.68;0.68;;;2.50;99.90;;;;;;4415269;32;20062;-74
2021/01/24 06:06:51;;;;;;;1.27;1.00;;;2.50;99.90;;;;;;4410658;32;20083;-74
2021/01/24 06:09:18;;;;;;;0.68;0.68;;;2.40;99.90;;;;;;4400667;32;20413;-74
2021/01/24 06:11:44;;;;;;;1.40;0.95;;;2.40;99.90;;;;;;4405589;32;20076;-74
2021/01/24 06:14:10;;;;;;;3.35;0.85;;;2.40;99.90;;;;;;4414887;32;20065;-74
2021/01/24 06:16:39;;;;;;;0.80;0.80;;;2.40;99.90;;;;;;4415146;32;20462;-74
2021/01/24 06:19:09;;;;;;;0.40;0.40;;;2.40;99.90;;;;;;4414456;32;20113;-74
2021/01/24 06:21:40;;;;;;;0.70;0.70;;;2.40;99.90;;;;;;4415573;32;20077;-74
2021/01/24 06:24:13;;;;;;;0.40;0.40;;;2.40;99.90;;;;;;4414876;32;20090;-74
2021/01/24 06:26:40;;;;;;;1.00;0.93;;;2.40;99.90;;;;;;4414463;32;20073;-74
2021/01/24 06:29:08;;;;;;;0.37;0.37;;;2.40;99.90;;;;;;4415200;32;20053;-73
2021/01/24 06:31:34;;;;;;;0.50;0.50;;;2.40;99.90;;;;;;4415106;32;20085;-74
2021/01/24 06:34:06;;;;;;;0.40;0.40;;;2.40;99.90;;;;;;4414298;32;20065;-74
2021/01/24 06:36:37;;;;;;;0.43;0.43;;;2.40;99.90;;;;;;4414124;32;20077;-74
2021/01/24 06:39:04;;;;;;;0.45;0.45;;;2.40;99.90;;;;;;4414510;32;20066;-74
2021/01/24 06:41:46;;;;;;;1.67;0.68;;;2.30;99.90;;;;;;4414833;32;20090;-74
2021/01/24 06:44:36;;;;;;;0.43;0.43;;;2.30;99.90;;;;;;4415592;32;20065;-74
2021/01/24 06:47:04;;;;;;;0.40;0.40;;;2.40;99.90;;;;;;4413345;32;20496;-74
2021/01/24 06:49:45;;;;;;;0.40;0.40;;;2.40;99.90;;;;;;4414235;32;20070;-74
2021/01/24 06:52:14;;;;;;;;;;;2.40;99.90;;;;;;4414463;32;20074;-74
2021/01/24 06:54:39;;;;;;;0.40;0.40;;;2.40;99.90;;;;;;4415433;32;19949;-74
2021/01/24 06:57:07;;;;;;;0.30;0.30;;;2.40;99.90;;;;;;4414900;32;20565;-74
2021/01/24 06:59:32;;;;;;;0.50;0.50;;;2.40;99.90;;;;;;4415145;32;20117;-74
2021/01/24 07:02:26;;;;;;;2.65;0.88;;;2.40;99.90;;;;;;4415102;32;20120;-74
2021/01/24 07:05:16;;;;;;;0.40;0.40;;;2.40;99.90;;;;;;4414955;32;20065;-74
2021/01/24 07:07:43;;;;;;;0.40;0.40;;;2.30;99.90;;;;;;4403558;32;20144;-74
2021/01/24 07:10:30;;;;;;;0.30;0.30;;;2.40;99.90;;;;;;4398984;32;20090;-74
2021/01/24 07:12:55;;;;;;;0.37;0.37;;;2.50;99.90;;;;;;4410607;32;20070;-74
2021/01/24 07:15:22;;;;;;;4.30;0.90;;;2.50;99.90;;;;;;4415621;32;20120;-74
2021/01/24 07:17:56;;;;;;;0.40;0.40;;;2.50;99.90;;;;;;4415013;32;20139;-74
2021/01/24 07:20:22;;;;;;;0.82;0.82;;;2.40;99.90;;;;;;4414902;32;20081;-73
2021/01/24 07:22:48;;;;;;;0.40;0.40;;;2.40;99.90;;;;;;4414707;32;20128;-74
2021/01/24 07:25:14;;;;;;;0.50;0.50;;;2.50;99.90;;;;;;4414399;32;20100;-74
2021/01/24 07:27:42;;;;;;;0.50;0.50;;;2.60;99.90;;;;;;4414059;32;20065;-74
2021/01/24 07:30:08;;;;;;;2.83;0.68;;;2.60;99.90;;;;;;4414633;32;20153;-74
2021/01/24 07:32:33;;;;;;;0.37;0.37;;;2.50;99.90;;;;;;4415099;32;20127;-74
2021/01/24 07:34:59;;;;;;;1.17;1.08;;;2.50;99.90;;;;;;4413438;32;20062;-74
2021/01/24 07:37:25;;;;;;;0.45;0.45;;;2.40;99.90;;;;;;4414465;32;20069;-74
2021/01/24 07:39:51;;;;;;;6.18;1.15;;;2.40;99.90;;;;;;4413512;32;20519;-73
2021/01/24 07:42:19;;;;;;;0.30;0.30;;;2.40;99.90;;;;;;4413845;32;20091;-74
2021/01/24 07:44:45;;;;;;;2.62;1.02;;;2.40;99.90;;;;;;4413985;32;20073;-74
2021/01/24 07:47:12;;;;;;;0.30;0.30;;;2.50;99.90;;;;;;4413891;32;20451;-74
2021/01/24 07:49:38;;;;;;;0.60;0.60;;;2.60;99.90;;;;;;4413622;32;20120;-74
2021/01/24 07:52:04;;;;;;;0.88;0.88;;;2.60;99.90;;;;;;4413859;32;20082;-74
2021/01/24 07:54:30;;;;;;;0.70;0.70;;;2.60;99.90;;;;;;4414895;32;20074;-74
2021/01/24 07:56:56;;;;;;;0.80;0.80;;;2.60;99.90;;;;;;4414688;32;20127;-74
2021/01/24 07:59:21;;;;;;;15.70;1.73;;;2.60;99.90;;;;;;4414969;32;20073;-74
2021/01/24 08:01:47;;;;;;;5.12;1.40;;;2.60;99.90;;;;;;4414653;32;20073;-74
2021/01/24 08:04:12;;;;;;;0.90;0.90;;;2.60;99.90;;;;;;4413975;32;20434;-74
2021/01/24 08:06:39;;;;;;;0.30;0.30;;;2.60;99.90;;;;;;4410716;32;20062;-73
2021/01/24 08:09:06;;;;;;;0.65;0.65;;;2.60;99.90;;;;;;4398266;32;20424;-74
2021/01/24 08:11:32;;;;;;;0.30;0.30;;;2.60;99.90;;;;;;4402644;32;20078;-74
2021/01/24 08:13:58;;;;;;;0.70;0.70;;;2.60;99.90;;;;;;4413895;32;20062;-74
2021/01/24 08:16:32;;;;;;;0.50;0.50;;;2.60;99.90;;;;;;4414635;32;20495;-74
2021/01/24 08:18:58;;;;;;;0.50;0.50;;;2.60;99.90;;;;;;4412307;32;20156;-74
2021/01/24 08:21:25;;;;;;;0.40;0.40;;;2.70;99.90;;;;;;4414260;32;20105;-74
2021/01/24 08:23:51;;;;;;;0.50;0.50;;;2.60;99.90;;;;;;4414792;32;20125;-74
2021/01/24 08:26:17;;;;;;;0.30;0.30;;;2.70;99.90;;;;;;4413625;32;20078;-74
2021/01/24 08:28:43;;;;;;;0.60;0.50;;;2.60;99.90;;;;;;4413886;32;20062;-74
2021/01/24 08:31:09;;;;;;;0.40;0.40;;;2.70;99.90;;;;;;4414792;32;20074;-74
2021/01/24 08:33:36;;;;;;;0.30;0.30;;;2.70;99.90;;;;;;4413810;32;20066;-73
2021/01/24 08:36:11;;;;;;;0.50;0.50;;;2.70;99.90;;;;;;4413183;32;20422;-73
2021/01/24 08:38:37;;;;;;;0.40;0.40;;;2.70;99.90;;;;;;4413499;32;20092;-74
2021/01/24 08:41:03;;;;;;;0.30;0.30;;;2.70;99.90;;;;;;4410299;32;93417;-74
2021/01/24 08:43:29;;;;;;;0.40;0.40;;;2.60;99.90;;;;;;4413441;32;20083;-74
2021/01/24 08:46:18;;;;;;;0.40;0.40;;;2.60;99.90;;;;;;4414217;32;20494;-73
2021/01/24 08:48:44;;;;;;;0.40;0.40;;;2.60;99.90;;;;;;4411868;32;20090;-73
2021/01/24 08:51:09;;;;;;;0.30;0.30;;;2.70;99.90;;;;;;4412562;32;20070;-73
2021/01/24 08:53:35;;;;;;;0.60;0.60;;;2.70;99.90;;;;;;4413224;32;20073;-73
2021/01/24 08:56:01;;;;;;;0.30;0.30;;;2.70;99.90;;;;;;4414388;32;20562;-73
2021/01/24 08:58:28;;;;;;;0.30;0.30;;;2.70;99.90;;;;;;4413329;32;20086;-73
2021/01/24 09:01:09;;;;;;;0.50;0.50;;;2.60;99.90;;;;;;4413475;32;20078;-73
2021/01/24 09:03:35;;;;;;;0.40;0.40;;;2.60;99.90;;;;;;4413225;32;20086;-73
2021/01/24 09:06:17;;;;;;;0.43;0.37;;;2.60;99.90;;;;;;4412571;32;20141;-73
2021/01/24 09:08:52;;;;;;;0.37;0.37;;;2.60;99.90;;;;;;4384245;32;20070;-73
2021/01/24 09:11:18;;;;;;;0.40;0.40;;;2.60;99.90;;;;;;4386813;32;20059;-73
2021/01/24 09:13:44;;;;;;;0.45;0.45;;;2.60;99.90;;;;;;4412965;32;20077;-73
2021/01/24 09:16:09;;;;;;;0.60;0.60;;;2.60;99.90;;;;;;4414429;32;20520;-73
2021/01/24 09:18:35;;;;;;;0.75;0.75;;;2.70;99.90;;;;;;4413605;32;20124;-73
2021/01/24 09:21:02;;;;;;;2.42;0.57;;;2.60;99.90;;;;;;4412697;32;20117;-73
2021/01/24 09:23:28;;;;;;;0.30;0.30;;;2.70;99.90;;;;;;4413332;32;20335;-73
2021/01/24 09:25:54;;;;;;;0.90;0.90;;;2.80;99.90;;;;;;4412589;32;20077;-73
2021/01/24 09:28:20;;;;;;;0.43;0.43;;;2.70;99.90;;;;;;4413343;32;20081;-73
2021/01/24 09:30:45;;;;;;;0.35;0.35;;;2.80;99.90;;;;;;4415725;32;20413;-73
2021/01/24 09:33:11;;;;;;;1.55;0.80;;;2.80;99.90;;;;;;4415333;32;20057;-73
2021/01/24 09:35:37;;;;;;;0.32;0.32;;;2.80;99.90;;;;;;4415844;32;20058;-73
2021/01/24 09:38:02;;;;;;;0.40;0.40;;;2.80;99.90;;;;;;4414940;32;20104;-73
2021/01/24 09:40:28;;;;;;;0.80;0.80;;;2.90;99.90;;;;;;4415092;32;20131;-73
2021/01/24 09:42:53;;;;;;;0.40;0.40;;;2.90;99.90;;;;;;4415764;32;20065;-73
2021/01/24 09:45:19;;;;;;;1.12;1.05;;;2.90;99.90;;;;;;4416656;32;20069;-73
2021/01/24 09:47:45;;;;;;;0.85;0.82;;;3.10;99.90;;;;;;4414777;32;20116;-73
2021/01/24 09:50:11;;;;;;;0.30;0.30;;;3.00;99.90;;;;;;4415717;32;20083;-73
2021/01/24 09:52:36;;;;;;;0.73;0.73;;;2.90;99.90;;;;;;4415974;32;20431;-73
2021/01/24 09:55:03;;;;;;;0.50;0.50;;;3.00;99.90;;;;;;4415465;32;20531;-73
2021/01/24 09:57:28;;;;;;;0.43;0.43;;;3.00;99.90;;;;;;4415546;32;20113;-73
2021/01/24 09:59:54;;;;;;;1.12;1.02;;;3.10;99.90;;;;;;4415348;32;20136;-73
2021/01/24 10:02:19;;;;;;;0.55;0.55;;;3.10;99.90;;;;;;4415770;32;20065;-73
2021/01/24 10:04:45;;;;;;;1.87;1.35;;;3.10;99.90;;;;;;4416052;32;20065;-73
2021/01/24 10:07:11;;;;;;;2.60;0.82;;;3.20;99.90;;;;;;4409168;32;20066;-73
2021/01/24 10:09:36;;;;;;;0.30;0.30;;;3.20;99.90;;;;;;4400241;32;20084;-73
2021/01/24 10:12:02;;;;;;;0.45;0.45;;;3.20;99.90;;;;;;4406983;32;20430;-73
2021/01/24 10:14:27;;;;;;;0.30;0.30;;;3.10;99.90;;;;;;4415958;32;20065;-73
2021/01/24 10:16:53;;;;;;;0.35;0.35;;;3.20;99.90;;;;;;4416167;32;20066;-73
2021/01/24 10:19:18;;;;;;;0.35;0.35;;;3.20;99.90;;;;;;4414842;32;20070;-73
2021/01/24 10:21:43;;;;;;;0.30;0.30;;;3.30;99.90;;;;;;4415341;32;20066;-74
2021/01/24 10:24:09;;;;;;;0.40;0.40;;;3.30;99.90;;;;;;4415312;32;20116;-74
2021/01/24 10:26:35;;;;;;;0.40;0.40;;;3.40;99.90;;;;;;4416181;32;20061;-74
2021/01/24 10:29:00;;;;;;;0.55;0.50;;;3.40;99.90;;;;;;4415764;32;20065;-74
2021/01/24 10:31:26;;;;;;;0.82;0.82;;;3.40;99.90;;;;;;4416011;32;20074;-74
2021/01/24 10:33:51;;;;;;;0.37;0.37;;;3.40;99.90;;;;;;4415182;32;20610;-74
2021/01/24 10:36:17;;;;;;;0.30;0.30;;;3.40;99.90;;;;;;4414695;32;20078;-74
2021/01/24 10:38:43;;;;;;;0.60;0.60;;;3.30;99.90;;;;;;4415531;32;20074;-74
2021/01/24 10:41:09;;;;;;;0.52;0.52;;;3.50;99.90;;;;;;4414668;32;20481;-74
2021/01/24 10:43:34;;;;;;;0.30;0.30;;;3.40;99.90;;;;;;4415910;32;20058;-74
2021/01/24 10:46:00;;;;;;;0.50;0.50;;;3.40;99.90;;;;;;4414858;32;20457;-74
2021/01/24 10:48:25;;;;;;;0.60;0.60;;;3.40;99.90;;;;;;4414194;32;20066;-74
2021/01/24 10:50:52;;;;;;;0.70;0.70;;;3.30;99.90;;;;;;4414364;32;20074;-74
2021/01/24 10:53:18;;;;;;;0.25;0.25;;;3.30;99.90;;;;;;4414397;32;20074;-74
2021/01/24 10:55:43;;;;;;;0.40;0.40;;;3.20;99.90;;;;;;4415217;32;20120;-74
2021/01/24 10:58:08;;;;;;;0.75;0.65;;;3.10;99.90;;;;;;4414789;32;20626;-74
2021/01/24 11:00:35;;;;;;;0.30;0.30;;;3.20;99.90;;;;;;4415105;32;20066;-74
2021/01/24 11:03:01;;;;;;;0.35;0.35;;;3.20;99.90;;;;;;4415061;32;20058;-74
2021/01/24 11:05:27;;;;;;;0.40;0.40;;;3.10;99.90;;;;;;4414761;32;20074;-74
2021/01/24 11:07:52;;;;;;;0.45;0.45;;;3.20;99.90;;;;;;4403971;32;20069;-74
2021/01/24 11:10:18;;;;;;;0.35;0.35;;;3.20;99.90;;;;;;4399262;32;20071;-74
2021/01/24 11:12:44;;;;;;;0.40;0.40;;;3.20;99.90;;;;;;4411049;32;20081;-74
2021/01/24 11:15:10;;;;;;;0.47;0.47;;;3.10;99.90;;;;;;4414599;32;20068;-74
2021/01/24 11:17:37;;;;;;;0.40;0.40;;;3.10;99.90;;;;;;4414046;32;20069;-74
2021/01/24 11:20:05;;;;;;;0.52;0.47;;;3.00;99.90;;;;;;4415402;32;20507;-74
2021/01/24 11:22:30;;;;;;;0.70;0.57;;;3.10;99.90;;;;;;4413947;32;20444;-74
2021/01/24 11:24:56;;;;;;;0.30;0.30;;;3.10;99.90;;;;;;4414407;32;20077;-74
2021/01/24 11:27:21;;;;;;;0.47;0.47;;;3.20;99.90;;;;;;4414844;32;20372;-74
2021/01/24 11:29:47;;;;;;;0.40;0.40;;;3.20;99.90;;;;;;4414486;32;20066;-74
2021/01/24 11:32:12;;;;;;;0.40;0.40;;;3.20;99.90;;;;;;4414011;32;20115;-74
2021/01/24 11:34:39;;;;;;;0.30;0.30;;;3.10;99.90;;;;;;4414162;32;20066;-74
2021/01/24 11:37:06;;;;;;;0.43;0.43;;;3.10;99.90;;;;;;4414168;32;20086;-74
2021/01/24 11:39:32;;;;;;;0.40;0.40;;;3.20;99.90;;;;;;4414866;32;20066;-73
2021/01/24 11:41:58;;;;;;;0.40;0.40;;;3.10;99.90;;;;;;4414684;32;20074;-74
2021/01/24 11:44:24;;;;;;;0.50;0.50;;;3.20;99.90;;;;;;4414829;32;20511;-74
2021/01/24 11:46:51;;;;;;;0.65;0.65;;;3.20;99.90;;;;;;4414165;32;20416;-74
2021/01/24 11:49:17;;;;;;;1.33;0.60;;;3.20;99.90;;;;;;4413306;32;20082;-74
2021/01/24 11:51:42;;;;;;;0.30;0.30;;;3.20;99.90;;;;;;4414592;32;20065;-74
2021/01/24 11:54:08;;;;;;;0.45;0.45;;;3.20;99.90;;;;;;4413540;32;20090;-74
2021/01/24 11:56:33;;;;;;;0.85;0.75;;;3.20;99.90;;;;;;4414602;32;20520;-74
2021/01/24 11:58:59;;;;;;;1.25;0.68;;;3.20;99.90;;;;;;4414415;32;20061;-74
2021/01/24 12:01:25;;;;;;;0.68;0.68;;;3.10;99.90;;;;;;4400258;32;20081;-74
2021/01/24 12:03:50;;;;;;;0.30;0.30;;;3.00;99.90;;;;;;4399262;32;20057;-74
2021/01/24 12:06:16;;;;;;;0.60;0.60;;;3.10;99.90;;;;;;4397926;32;20162;-74
2021/01/24 12:08:41;;;;;;;0.30;0.30;;;3.10;99.90;;;;;;4383999;32;20087;-73
2021/01/24 12:11:08;;;;;;;0.30;0.30;;;3.10;99.90;;;;;;4385394;32;20086;-74
2021/01/24 12:13:34;;;;;;;0.30;0.30;;;3.20;99.90;;;;;;4413817;32;20069;-74
2021/01/24 12:15:59;;;;;;;0.50;0.50;;;3.20;99.90;;;;;;4413462;32;20121;-74
2021/01/24 12:18:24;;;;;;;0.40;0.40;;;3.30;99.90;;;;;;4413550;32;20086;-74
2021/01/24 12:20:50;;;;;;;0.50;0.50;;;3.20;99.90;;;;;;4413540;32;20070;-73
2021/01/24 12:23:16;;;;;;;1.70;0.77;;;3.10;99.90;;;;;;4414156;32;20519;-74
2021/01/24 12:25:41;;;;;;;0.30;0.30;;;3.10;99.90;;;;;;4413354;32;20078;-74
2021/01/24 12:28:07;;;;;;;0.30;0.30;;;3.10;99.90;;;;;;4414708;32;20062;-74
2021/01/24 12:30:32;;;;;;;0.45;0.45;;;3.10;99.90;;;;;;4414936;32;20061;-74
2021/01/24 12:32:58;;;;;;;0.62;0.62;;;3.10;99.90;;;;;;4413456;32;20117;-74
2021/01/24 12:35:23;;;;;;;0.62;0.62;;;3.10;99.90;;;;;;4413557;32;20448;-74
2021/01/24 12:37:49;;;;;;;3.95;0.70;;;3.20;99.90;;;;;;4413452;32;20058;-74
2021/01/24 12:40:15;;;;;;;1.23;0.50;;;3.20;99.90;;;;;;4413060;32;20507;-74
2021/01/24 12:42:40;;;;;;;0.30;0.30;;;3.20;99.90;;;;;;4413578;32;20531;-74
2021/01/24 12:45:06;;;;;;;0.30;0.30;;;3.10;99.90;;;;;;4413814;32;20073;-74
2021/01/24 12:47:32;;;;;;;0.60;0.60;;;3.10;99.90;;;;;;4412398;32;20074;-73
2021/01/24 12:49:57;;;;;;;0.75;0.75;;;3.10;99.90;;;;;;4413963;32;20086;-74
2021/01/24 12:52:23;;;;;;;0.40;0.40;;;3.20;99.90;;;;;;4412989;32;20200;-74
2021/01/24 12:54:48;;;;;;;0.73;0.73;;;3.20;99.90;;;;;;4412937;32;20077;-74
2021/01/24 12:57:14;;;;;;;0.32;0.32;;;3.20;99.90;;;;;;4413582;32;20066;-74